Time;durP1;ratioP1;P1;durP2;ratioP2;P2;SDS_P1;SDS_P2;PMS_P1;PMS_P2;Temp;Humidity;BMP_temperature;BMP_pressure;BME280_temperature;BME280_humidity;BME280_pressure;Samples;Min_cycle;Max_cycle;Signal;HPM_P1;HPM_P2
2022/02/10 00:23:03;;;;;;;15.90;6.40;;;;;;;2.05;69.09;99679.41;25009;1318;3055493;-66
2022/02/10 00:34:16;;;;;;;19.60;6.40;;;;;;;2.01;68.92;99678.81;24759;1326;3056081;-69
2022/02/10 00:36:57;;;;;;;26.50;6.60;;;;;;;1.97;69.54;99682.52;24834;1326;3052054;-63
2022/02/10 00:42:01;;;;;;;69.00;20.80;;;;;;;2.09;70.02;99679.33;24985;1318;3027395;-73
2022/02/10 00:44:30;;;;;;;65.00;17.00;;;;;;;2.60;69.56;99677.11;25002;1318;3026878;-64
2022/02/10 00:46:59;;;;;;;65.30;19.10;;;;;;;3.20;67.80;99678.85;25006;1318;3068282;-69
2022/02/10 00:49:28;;;;;;;49.70;15.90;;;;;;;3.11;67.19;99689.13;25069;1318;3026621;-66
2022/02/10 00:51:57;;;;;;;57.60;17.90;;;;;;;3.06;67.15;99693.41;25025;1318;3050552;-68
2022/02/10 00:54:27;;;;;;;69.20;21.40;;;;;;;2.81;67.34;99695.77;24957;1318;3026418;-64
2022/02/10 00:56:57;;;;;;;82.10;24.20;;;;;;;2.61;68.22;99696.79;24969;1319;3053028;-69
2022/02/10 01:10:30;;;;;;;60.40;19.60;;;;;;;2.07;69.98;99677.48;25088;1318;3027134;-66
2022/02/10 01:32:03;;;;;;;47.70;15.80;;;;;;;2.55;69.55;99691.41;24977;1318;3068414;-71
2022/02/10 01:34:35;;;;;;;39.60;14.30;;;;;;;2.26;70.50;99696.56;24971;1318;3026236;-68
2022/02/10 01:37:04;;;;;;;48.10;16.60;;;;;;;2.04;71.25;99693.60;25005;1318;3026332;-66
2022/02/10 01:39:40;;;;;;;51.00;17.60;;;;;;;2.04;71.04;99685.83;25019;1318;3026470;-68
2022/02/10 02:04:20;;;;;;;69.00;22.30;;;;;;;2.68;69.63;99672.92;24996;1318;3058568;-66
2022/02/10 02:06:51;;;;;;;74.00;23.60;;;;;;;2.32;70.70;99676.39;25007;1318;3026194;-71
2022/02/10 02:09:21;;;;;;;75.80;26.90;;;;;;;2.26;70.91;99675.14;24948;1319;3025957;-65
2022/02/10 02:11:55;;;;;;;72.70;25.20;;;;;;;2.12;71.20;99669.23;24981;1318;3026824;-66
2022/02/10 02:14:25;;;;;;;76.10;23.10;;;;;;;1.99;71.71;99665.38;24994;1318;3068486;-65
2022/02/10 02:17:02;;;;;;;73.30;24.30;;;;;;;1.95;71.18;99668.07;25002;1318;3026749;-68
2022/02/10 02:19:32;;;;;;;54.40;18.90;;;;;;;1.84;71.37;99671.58;24999;1318;3052884;-67
2022/02/10 02:22:02;;;;;;;84.30;23.00;;;;;;;1.71;72.18;99669.77;24982;1319;3026923;-69
2022/02/10 02:24:32;;;;;;;51.10;18.60;;;;;;;1.60;72.49;99671.55;25040;1318;3049617;-66
2022/02/10 02:27:04;;;;;;;43.80;14.50;;;;;;;1.61;72.42;99669.12;25023;1318;3026443;-63
2022/02/10 02:29:37;;;;;;;56.10;15.80;;;;;;;2.07;72.81;99665.70;24999;1318;3069827;-68
2022/02/10 02:32:13;;;;;;;58.70;18.00;;;;;;;2.60;70.74;99665.66;24999;1318;3026933;-71
2022/02/10 02:35:16;;;;;;;57.70;14.90;;;;;;;2.74;69.73;99669.31;25018;1319;3054635;-63
2022/02/10 03:05:42;;;;;;;51.30;17.60;;;;;;;1.90;71.30;99688.55;24998;1318;3057885;-66
2022/02/10 03:08:00;;;;;;;59.90;19.10;;;;;;;1.77;71.57;99686.59;24932;1318;3051545;-68
2022/02/10 03:10:57;;;;;;;49.50;16.80;;;;;;;1.53;72.02;99689.48;25012;1318;3027182;-72
2022/02/10 03:13:30;;;;;;;;;;;;;;;1.31;72.87;99695.09;24957;1318;3049473;-67
2022/02/10 03:19:22;;;;;;;43.30;14.70;;;;;;;1.16;73.51;99688.99;25035;1319;3051616;-72
2022/02/10 04:16:44;;;;;;;23.70;7.10;;;;;;;1.96;69.88;99718.65;24938;1319;3026090;-65
2022/02/10 04:22:12;;;;;;;30.80;10.10;;;;;;;1.35;72.32;99721.08;24938;1319;3070987;-67
2022/02/10 04:25:10;;;;;;;40.00;15.00;;;;;;;1.36;71.70;99714.67;25027;1318;3051620;-70
2022/02/10 05:08:49;;;;;;;29.80;10.90;;;;;;;1.80;71.38;99678.40;25008;1319;3054570;-67
2022/02/10 05:15:01;;;;;;;35.40;11.30;;;;;;;1.36;72.48;99678.26;24993;1318;3052488;-69
2022/02/10 05:31:27;;;;;;;22.20;7.50;;;;;;;1.98;72.01;99677.84;25051;1319;3027840;-71
2022/02/10 05:33:36;;;;;;;42.10;12.50;;;;;;;1.89;70.58;99686.14;25030;1318;3048777;-66
2022/02/10 05:36:08;;;;;;;38.90;12.70;;;;;;;1.68;71.42;99685.56;25066;1318;3052462;-70
2022/02/10 05:38:44;;;;;;;36.10;11.00;;;;;;;1.56;71.79;99694.60;25027;1318;3028924;-70
2022/02/10 05:44:23;;;;;;;30.30;10.70;;;;;;;1.33;73.21;99685.57;25054;1318;3049925;-67
2022/02/10 05:49:59;;;;;;;19.10;6.20;;;;;;;1.41;72.97;99692.98;25038;1318;3026825;-69
2022/02/10 05:53:18;;;;;;;31.60;9.50;;;;;;;2.20;71.34;99689.26;25082;1318;3052140;-69
2022/02/10 05:57:52;;;;;;;29.40;8.80;;;;;;;2.55;69.43;99682.92;25034;1318;3026098;-70
2022/02/10 06:50:21;;;;;;;28.10;8.30;;;;;;;2.09;69.91;99678.12;25103;1318;3053863;-67
2022/02/10 07:08:56;;;;;;;29.10;10.10;;;;;;;3.00;68.03;99675.58;25079;1318;3026398;-65
2022/02/10 08:54:54;;;;;;;34.00;12.70;;;;;;;3.21;68.93;99601.27;25036;1318;3051804;-68
2022/02/10 09:57:53;;;;;;;46.10;16.60;;;;;;;3.64;76.15;99564.51;25070;1318;3026514;-71
2022/02/10 10:04:08;;;;;;;32.60;14.80;;;;;;;3.16;76.97;99564.36;31511;1321;3026193;-68
2022/02/10 10:09:46;;;;;;;26.50;12.90;;;;;;;3.36;76.37;99576.09;24957;1321;3054590;-74
2022/02/10 10:15:16;;;;;;;35.10;15.60;;;;;;;3.72;76.90;99557.86;25013;1321;3052444;-70
2022/02/10 10:24:18;;;;;;;42.90;18.10;;;;;;;3.57;76.35;99557.27;25073;1318;3068823;-74
2022/02/10 10:57:18;;;;;;;29.30;15.30;;;;;;;3.37;80.22;99573.79;25153;1314;3056768;-75
2022/02/10 11:22:26;;;;;;;28.90;13.20;;;;;;;3.80;77.94;99571.79;25151;1315;3070041;-76
2022/02/10 11:37:08;;;;;;;22.50;12.70;;;;;;;4.47;77.11;99577.98;25229;1315;3055447;-74
2022/02/10 11:39:47;;;;;;;27.20;15.20;;;;;;;4.31;78.10;99576.09;25147;1315;3055542;-73
2022/02/10 11:42:45;;;;;;;19.30;11.20;;;;;;;3.91;80.21;99570.09;25157;1315;3056511;-72
2022/02/10 11:59:52;;;;;;;26.40;11.70;;;;;;;4.82;77.70;99564.28;25163;1323;3053424;-73
2022/02/10 12:38:35;;;;;;;33.40;19.20;;;;;;;4.55;80.18;99601.33;25106;1318;3053016;-73
2022/02/10 14:18:39;;;;;;;37.00;21.20;;;;;;;6.13;75.38;99682.50;25068;1316;3052905;-68
2022/02/10 14:21:17;;;;;;;54.30;24.90;;;;;;;5.96;75.24;99681.40;25131;1317;3027139;-72
2022/02/10 14:26:33;;;;;;;47.10;26.60;;;;;;;5.66;76.06;99689.10;25093;1314;3026642;-74
2022/02/10 14:29:02;;;;;;;46.10;26.10;;;;;;;5.41;77.01;99692.44;25182;1315;3058023;-75
2022/02/10 14:31:31;;;;;;;32.40;18.30;;;;;;;5.27;77.78;99687.22;25120;1315;3026880;-70
2022/02/10 14:34:01;;;;;;;38.20;19.50;;;;;;;5.71;76.79;99683.37;25194;1314;3026230;-68
2022/02/10 14:36:38;;;;;;;38.00;19.60;;;;;;;6.37;74.80;99678.09;25150;1315;3055635;-66
2022/02/10 14:42:13;;;;;;;49.20;24.00;;;;;;;6.06;74.71;99677.02;25112;1314;3027937;-69
2022/02/10 15:54:30;;;;;;;39.50;19.70;;;;;;;5.18;76.77;99734.77;25085;1317;3071224;-68
2022/02/10 16:11:04;;;;;;;35.50;20.20;;;;;;;5.07;75.55;99737.05;25115;1314;3055311;-67
2022/02/10 16:18:53;;;;;;;36.40;19.70;;;;;;;5.89;73.93;99746.85;25105;1313;3026882;-72
2022/02/10 16:21:35;;;;;;;35.40;19.70;;;;;;;5.75;73.41;99746.65;25135;1314;3026720;-72
2022/02/10 16:24:14;;;;;;;38.20;19.70;;;;;;;5.29;74.82;99757.11;25146;1314;3072216;-75
2022/02/10 16:26:55;;;;;;;34.70;20.50;;;;;;;5.06;75.25;99756.85;25112;1315;3048994;-73
2022/02/10 16:29:27;;;;;;;37.50;18.10;;;;;;;4.74;76.42;99757.03;25145;1318;3052090;-68
2022/02/10 16:31:56;;;;;;;26.20;14.20;;;;;;;4.67;76.94;99756.55;25100;1316;3026233;-71
2022/02/10 16:34:25;;;;;;;32.20;17.90;;;;;;;5.39;75.78;99754.16;25074;1318;3026493;-71
2022/02/10 16:36:55;;;;;;;30.40;16.20;;;;;;;5.56;74.60;99756.89;25128;1318;3051988;-72
2022/02/10 16:39:24;;;;;;;29.20;16.10;;;;;;;5.26;75.07;99759.64;25142;1318;3027562;-70
2022/02/10 16:41:54;;;;;;;32.00;18.30;;;;;;;5.11;75.16;99754.79;25152;1318;3026816;-68
2022/02/10 16:44:23;;;;;;;35.20;18.20;;;;;;;4.82;76.14;99754.69;25048;1316;3026472;-75
2022/02/10 16:46:52;;;;;;;30.60;16.60;;;;;;;4.63;76.83;99750.60;25104;1317;3053873;-74
2022/02/10 16:49:22;;;;;;;26.00;14.00;;;;;;;4.48;77.95;99757.67;25033;1318;3026952;-74
2022/02/10 16:51:51;;;;;;;30.20;16.90;;;;;;;5.06;76.90;99755.61;25092;1317;3052133;-69
2022/02/10 16:54:35;;;;;;;28.50;16.50;;;;;;;5.56;74.87;99745.06;25191;1318;3026201;-76
2022/02/10 16:57:12;;;;;;;32.00;17.30;;;;;;;5.21;75.21;99755.30;25081;1318;3048869;-76
2022/02/10 16:59:49;;;;;;;31.00;18.40;;;;;;;4.82;76.64;99759.38;25154;1318;3055112;-73
2022/02/10 17:27:31;;;;;;;29.50;14.50;;;;;;;4.50;78.05;99767.67;25075;1317;3054300;-74
2022/02/10 17:30:19;;;;;;;29.60;16.90;;;;;;;5.23;76.30;99763.40;25078;1318;3053988;-73
2022/02/10 17:35:22;;;;;;;33.20;17.50;;;;;;;5.56;74.61;99759.16;25087;1317;3049066;-73
2022/02/10 17:51:38;;;;;;;36.30;18.80;;;;;;;5.85;73.87;99763.52;25004;1317;3056179;-70
2022/02/10 17:54:07;;;;;;;33.00;18.90;;;;;;;5.72;73.57;99755.27;25064;1316;3049440;-73
2022/02/10 17:56:37;;;;;;;36.90;20.40;;;;;;;5.48;73.60;99765.32;25071;1316;3027812;-74
2022/02/10 17:59:07;;;;;;;35.90;20.70;;;;;;;5.14;74.48;99770.81;25094;1316;3058647;-71
2022/02/10 18:01:36;;;;;;;35.80;20.80;;;;;;;4.87;75.71;99765.80;25125;1317;3026578;-72
2022/02/10 18:04:06;;;;;;;33.60;16.00;;;;;;;4.73;76.40;99772.48;25093;1316;3026527;-74
2022/02/10 18:06:41;;;;;;;30.60;14.50;;;;;;;5.35;75.73;99763.67;25054;1317;3026487;-71
2022/02/10 18:14:22;;;;;;;42.70;20.70;;;;;;;5.46;74.00;99766.45;25101;1317;3029514;-74
2022/02/10 18:16:57;;;;;;;38.80;20.70;;;;;;;5.27;74.27;99771.94;25101;1316;3053000;-72
2022/02/10 18:19:34;;;;;;;43.50;21.10;;;;;;;5.00;74.86;99771.97;25159;1317;3053336;-72
2022/02/10 18:30:37;;;;;;;35.20;18.50;;;;;;;5.76;73.27;99755.84;25019;1316;3052647;-72
2022/02/10 19:09:12;;;;;;;32.20;16.90;;;;;;;5.39;74.06;99778.14;25080;1316;3052516;-70
2022/02/10 19:11:46;;;;;;;25.90;16.40;;;;;;;5.27;74.34;99784.45;25103;1317;3053501;-73
2022/02/10 19:14:17;;;;;;;32.20;16.30;;;;;;;5.22;73.83;99778.21;25045;1317;3051108;-74
2022/02/10 19:16:47;;;;;;;36.70;19.50;;;;;;;5.10;73.78;99783.64;25056;1317;3026845;-74
2022/02/10 19:19:16;;;;;;;25.60;14.90;;;;;;;4.62;75.80;99785.84;25144;1317;3026612;-72
2022/02/10 19:21:45;;;;;;;24.30;15.00;;;;;;;4.66;75.87;99782.25;25095;1317;3052427;-73
2022/02/10 19:24:14;;;;;;;33.60;18.50;;;;;;;5.24;75.32;99780.55;25111;1317;3028618;-72
2022/02/10 19:26:50;;;;;;;32.90;16.00;;;;;;;5.53;73.97;99777.16;25113;1317;3052485;-70
2022/02/10 19:29:24;;;;;;;30.80;17.60;;;;;;;5.60;73.09;99778.83;25090;1316;3051906;-71
2022/02/10 19:31:54;;;;;;;32.00;17.70;;;;;;;5.39;73.32;99776.42;25059;1317;3068131;-73
2022/02/10 19:34:24;;;;;;;26.60;15.30;;;;;;;5.06;74.18;99775.42;25056;1317;3026513;-72
2022/02/10 19:36:53;;;;;;;35.20;17.40;;;;;;;4.95;74.54;99776.30;25106;1317;3027074;-75
2022/02/10 19:39:24;;;;;;;29.20;16.10;;;;;;;4.83;74.77;99776.70;25125;1317;3026310;-72
2022/02/10 19:41:54;;;;;;;29.00;14.30;;;;;;;4.96;75.50;99775.23;25095;1317;3051527;-71
2022/02/10 19:44:23;;;;;;;30.20;16.20;;;;;;;5.70;73.02;99771.32;25113;1317;3028084;-70
2022/02/10 19:46:52;;;;;;;36.50;17.70;;;;;;;5.72;72.87;99768.66;25108;1317;3028368;-74
2022/02/10 19:49:24;;;;;;;38.30;19.90;;;;;;;5.54;72.76;99768.59;25087;1318;3049413;-74
2022/02/10 19:51:53;;;;;;;36.70;20.20;;;;;;;5.23;73.77;99770.89;25102;1317;3028747;-73
2022/02/10 19:54:27;;;;;;;36.00;18.80;;;;;;;5.26;73.46;99771.13;25065;1317;3028754;-69
2022/02/10 19:56:56;;;;;;;37.40;19.10;;;;;;;5.20;73.68;99768.36;25036;1317;3055759;-71
2022/02/10 19:59:29;;;;;;;26.10;13.90;;;;;;;4.99;74.76;99766.81;25078;1316;3029755;-71
2022/02/10 20:01:58;;;;;;;27.50;14.60;;;;;;;5.57;73.70;99770.23;25119;1317;3028428;-73
2022/02/10 20:04:27;;;;;;;24.40;13.80;;;;;;;6.08;71.68;99758.16;25091;1317;3026086;-71
2022/02/10 20:06:56;;;;;;;27.10;16.70;;;;;;;6.04;71.40;99760.05;25105;1317;3050448;-72
2022/02/10 20:09:25;;;;;;;25.40;15.50;;;;;;;5.90;71.92;99760.70;25101;1317;3027591;-71
2022/02/10 20:11:55;;;;;;;26.40;15.80;;;;;;;5.61;72.16;99759.85;25084;1317;3056116;-72
2022/02/10 20:14:24;;;;;;;29.00;17.00;;;;;;;5.34;73.10;99760.95;25089;1316;3027070;-73
2022/02/10 20:16:55;;;;;;;32.10;18.80;;;;;;;5.04;74.16;99763.16;25061;1317;3027099;-72
2022/02/10 20:19:25;;;;;;;22.30;12.70;;;;;;;4.90;74.97;99762.41;25119;1317;3026604;-70
2022/02/10 20:21:55;;;;;;;27.70;14.30;;;;;;;4.89;75.23;99759.33;25104;1317;3026932;-74
2022/02/10 20:24:24;;;;;;;28.60;14.50;;;;;;;5.59;74.37;99757.62;25114;1317;3029414;-73
2022/02/10 20:26:53;;;;;;;24.50;14.00;;;;;;;6.25;71.36;99760.16;25114;1316;3027110;-71
2022/02/10 20:29:22;;;;;;;25.70;15.40;;;;;;;5.92;71.35;99747.80;25052;1317;3070452;-72
2022/02/10 20:31:52;;;;;;;27.40;16.90;;;;;;;5.70;71.95;99752.36;25100;1317;3026157;-72
2022/02/10 20:34:20;;;;;;;29.20;16.60;;;;;;;5.44;72.62;99756.96;25074;1317;3051444;-73
2022/02/10 20:39:46;;;;;;;32.90;17.90;;;;;;;5.14;73.22;99759.52;25051;1317;3052339;-72
2022/02/10 20:42:18;;;;;;;22.00;12.50;;;;;;;4.94;74.33;99765.56;25071;1317;3026335;-70
2022/02/10 20:44:52;;;;;;;31.50;16.10;;;;;;;5.56;73.72;99767.84;25107;1316;3050245;-74
2022/02/10 20:47:24;;;;;;;29.40;15.80;;;;;;;5.99;71.96;99760.56;25082;1316;3055990;-71
2022/02/10 20:49:53;;;;;;;35.70;19.00;;;;;;;5.77;71.86;99764.33;25085;1317;3026818;-71
2022/02/10 20:52:22;;;;;;;39.00;18.90;;;;;;;5.27;73.40;99772.32;25079;1317;3028517;-73
2022/02/10 20:54:51;;;;;;;35.00;20.80;;;;;;;5.39;72.94;99772.41;25081;1317;3054833;-74
2022/02/10 20:57:20;;;;;;;34.70;19.30;;;;;;;5.19;73.24;99770.65;25108;1318;3026599;-73
2022/02/10 20:59:49;;;;;;;39.50;22.00;;;;;;;5.04;73.82;99768.03;25097;1317;3049200;-70
2022/02/10 21:02:28;;;;;;;37.10;21.20;;;;;;;5.01;73.65;99771.27;25123;1317;3026823;-75
2022/02/10 21:05:05;;;;;;;31.10;16.90;;;;;;;4.86;74.45;99771.03;25051;1317;3051372;-70
2022/02/10 21:07:49;;;;;;;39.00;17.50;;;;;;;5.43;73.91;99762.88;25034;1317;3069086;-70
2022/02/10 21:10:23;;;;;;;68.00;22.00;;;;;;;6.11;71.66;99766.58;25086;1317;3049497;-72
2022/02/10 21:12:52;;;;;;;59.00;20.70;;;;;;;5.94;71.29;99768.23;25092;1317;3026777;-70
2022/02/10 21:15:27;;;;;;;58.90;24.60;;;;;;;5.74;71.91;99772.08;25105;1316;3026607;-73
2022/02/10 21:18:01;;;;;;;52.60;20.90;;;;;;;5.51;72.36;99776.70;25050;1316;3048346;-73
2022/02/10 21:20:33;;;;;;;43.20;19.80;;;;;;;5.25;72.87;99781.38;25038;1317;3054898;-72
2022/02/10 21:23:24;;;;;;;47.90;18.70;;;;;;;4.91;74.19;99779.39;25057;1317;3026311;-76
2022/02/10 21:25:56;;;;;;;54.90;20.60;;;;;;;4.78;74.63;99784.82;25101;1317;3057247;-72
2022/02/10 21:28:30;;;;;;;51.90;20.10;;;;;;;4.78;75.33;99779.46;25114;1317;3029728;-72
2022/02/10 21:31:02;;;;;;;44.40;17.70;;;;;;;5.41;74.16;99770.04;25106;1317;3026739;-70
2022/02/10 21:39:14;;;;;;;26.50;15.00;;;;;;;5.61;71.82;99755.16;25080;1317;3053508;-71
2022/02/10 22:19:55;;;;;;;37.30;18.60;;;;;;;5.47;72.86;99751.45;25069;1317;3052215;-72
2022/02/10 22:22:34;;;;;;;36.70;19.00;;;;;;;5.14;73.28;99752.95;25100;1318;3051853;-67
2022/02/10 22:25:08;;;;;;;39.20;18.80;;;;;;;4.94;73.89;99751.34;25073;1317;3054095;-69
2022/02/10 22:27:42;;;;;;;30.70;16.50;;;;;;;4.70;74.92;99749.34;25078;1317;3071186;-68
2022/02/10 22:30:22;;;;;;;37.00;18.10;;;;;;;4.49;75.59;99751.55;25091;1317;3049493;-70
2022/02/10 22:33:09;;;;;;;35.00;17.20;;;;;;;4.50;75.86;99748.07;25126;1317;3055081;-73
2022/02/10 22:35:39;;;;;;;38.40;17.40;;;;;;;5.21;74.75;99745.56;25139;1316;3052572;-70
2022/02/10 22:38:08;;;;;;;44.20;20.80;;;;;;;5.33;73.50;99748.64;25115;1318;3026417;-72
2022/02/10 22:43:06;;;;;;;36.40;17.60;;;;;;;5.02;74.14;99743.27;25085;1317;3026382;-69
2022/02/10 22:45:35;;;;;;;37.40;19.90;;;;;;;4.92;74.35;99742.05;25059;1317;3026342;-70
2022/02/10 22:48:04;;;;;;;36.90;20.00;;;;;;;4.70;75.08;99742.05;25044;1318;3054412;-70
2022/02/10 22:50:34;;;;;;;38.20;19.70;;;;;;;4.49;76.05;99744.78;25095;1317;3026909;-69
2022/02/10 22:53:02;;;;;;;30.90;16.60;;;;;;;4.47;76.47;99750.06;25113;1317;3026102;-70
2022/02/10 22:55:33;;;;;;;28.80;15.50;;;;;;;5.13;75.09;99753.15;25119;1317;3052785;-69
2022/02/10 22:58:02;;;;;;;29.20;16.20;;;;;;;5.73;73.04;99748.84;25130;1317;3029531;-73
2022/02/10 23:00:32;;;;;;;26.00;15.30;;;;;;;5.44;73.12;99756.44;25010;1317;3026437;-69
2022/02/10 23:03:02;;;;;;;31.70;18.20;;;;;;;5.39;73.16;99761.45;25127;1317;3051388;-72
2022/02/10 23:05:31;;;;;;;26.00;15.10;;;;;;;4.85;74.56;99765.17;25086;1317;3026898;-70
2022/02/10 23:08:19;;;;;;;31.80;17.30;;;;;;;4.58;75.49;99766.54;25004;1317;3060700;-67
2022/02/10 23:10:50;;;;;;;32.70;17.20;;;;;;;4.49;75.76;99758.86;25018;1317;3026493;-69
2022/02/10 23:13:27;;;;;;;22.00;13.50;;;;;;;4.32;76.73;99764.58;25060;1317;3027307;-69
2022/02/10 23:15:58;;;;;;;28.00;16.60;;;;;;;4.70;76.13;99762.70;25082;1316;3051862;-71
2022/02/10 23:18:29;;;;;;;31.60;17.20;;;;;;;4.98;74.99;99764.38;25038;1317;3026884;-71
2022/02/10 23:20:59;;;;;;;30.90;17.70;;;;;;;5.05;74.67;99766.60;25095;1317;3026767;-70
2022/02/10 23:23:29;;;;;;;29.10;17.40;;;;;;;4.87;74.83;99763.90;25126;1318;3027507;-69
2022/02/10 23:25:59;;;;;;;30.90;16.80;;;;;;;4.80;75.05;99764.65;25069;1317;3028204;-69
2022/02/10 23:28:35;;;;;;;28.90;15.50;;;;;;;4.64;75.54;99777.81;25094;1318;3026799;-71
2022/02/10 23:31:06;;;;;;;38.30;19.80;;;;;;;4.51;75.93;99769.36;25081;1317;3048627;-71
2022/02/10 23:33:38;;;;;;;30.80;17.70;;;;;;;4.54;76.28;99766.84;25071;1317;3028378;-71
2022/02/10 23:38:44;;;;;;;33.60;18.40;;;;;;;5.14;74.56;99765.45;25107;1317;3026924;-68
2022/02/10 23:44:11;;;;;;;36.70;20.00;;;;;;;5.02;74.15;99764.98;25078;1317;3052675;-71
2022/02/10 23:46:43;;;;;;;40.50;20.40;;;;;;;4.56;76.11;99772.67;25095;1316;3055095;-69
2022/02/10 23:49:19;;;;;;;41.40;21.30;;;;;;;4.45;76.55;99773.73;25082;1317;3026375;-71
2022/02/10 23:51:54;;;;;;;35.50;18.60;;;;;;;4.28;77.59;99774.05;25129;1316;3049000;-71
2022/02/10 23:54:24;;;;;;;39.90;21.30;;;;;;;5.13;75.95;99769.08;25089;1315;3053510;-69
2022/02/10 23:57:02;;;;;;;44.40;20.70;;;;;;;5.72;73.22;99773.00;25056;1317;3026826;-70
